Time;durP1;ratioP1;P1;durP2;ratioP2;P2;SDS_P1;SDS_P2;PMS_P1;PMS_P2;Temp;Humidity;BMP_temperature;BMP_pressure;BME280_temperature;BME280_humidity;BME280_pressure;Samples;Min_cycle;Max_cycle;Signal;HPM_P1;HPM_P2
2021/03/17 00:00:35;;;;;;;7.20;5.27;;;6.10;99.90;;;;;;4995347;28;20432;-69
2021/03/17 00:03:01;;;;;;;7.20;5.07;;;6.00;99.90;;;;;;5013127;28;20777;-67
2021/03/17 00:05:29;;;;;;;4.57;4.07;;;6.10;99.90;;;;;;5013113;28;20188;-68
2021/03/17 00:07:55;;;;;;;4.67;4.20;;;6.00;99.90;;;;;;5013109;28;20263;-68
2021/03/17 00:10:23;;;;;;;4.40;4.00;;;6.10;99.90;;;;;;5012809;28;20447;-68
2021/03/17 00:12:50;;;;;;;4.67;4.27;;;6.10;99.90;;;;;;4995068;28;20483;-68
2021/03/17 00:15:22;;;;;;;4.47;4.07;;;6.10;99.90;;;;;;5012858;28;20420;-68
2021/03/17 00:17:47;;;;;;;4.23;3.80;;;6.00;99.90;;;;;;5012891;28;20805;-68
2021/03/17 00:20:14;;;;;;;4.50;4.10;;;6.10;99.90;;;;;;5013150;28;20506;-67
2021/03/17 00:22:40;;;;;;;5.47;4.47;;;6.00;99.90;;;;;;5012717;28;20211;-68
2021/03/17 00:25:06;;;;;;;4.93;4.50;;;6.00;99.90;;;;;;5012782;28;20455;-68
2021/03/17 00:27:32;;;;;;;4.87;4.40;;;6.00;99.90;;;;;;5012967;28;20259;-67
2021/03/17 00:29:57;;;;;;;6.60;4.60;;;6.00;99.90;;;;;;5012590;28;20547;-68
2021/03/17 00:32:23;;;;;;;4.20;3.80;;;6.00;99.90;;;;;;5012741;28;20173;-67
2021/03/17 00:34:49;;;;;;;4.97;4.53;;;5.90;99.90;;;;;;5012606;28;20578;-69
2021/03/17 00:37:14;;;;;;;4.80;4.40;;;5.90;99.90;;;;;;5012713;28;20631;-67
2021/03/17 00:39:40;;;;;;;5.10;4.60;;;5.80;99.90;;;;;;5012590;28;20253;-67
2021/03/17 00:42:05;;;;;;;5.33;4.80;;;5.70;99.90;;;;;;5012440;28;20259;-68
2021/03/17 00:44:31;;;;;;;5.67;5.03;;;5.80;99.90;;;;;;5012512;28;20188;-68
2021/03/17 00:46:57;;;;;;;4.97;4.47;;;5.80;99.90;;;;;;5012491;28;20236;-68
2021/03/17 00:49:23;;;;;;;5.40;4.90;;;5.90;99.90;;;;;;5012248;28;20451;-67
2021/03/17 00:51:48;;;;;;;4.93;4.53;;;5.80;99.90;;;;;;5012315;28;20173;-68
2021/03/17 00:54:14;;;;;;;4.73;4.30;;;5.80;99.90;;;;;;5012447;28;20563;-67
2021/03/17 00:56:40;;;;;;;5.23;4.53;;;6.00;99.90;;;;;;5012362;28;20173;-67
2021/03/17 00:59:06;;;;;;;4.50;4.07;;;5.90;99.90;;;;;;5012264;28;20181;-68
2021/03/17 01:01:31;;;;;;;4.77;4.30;;;5.90;99.90;;;;;;5012083;28;20183;-68
2021/03/17 01:03:57;;;;;;;4.90;4.50;;;5.80;99.90;;;;;;5012211;28;20214;-67
2021/03/17 01:06:22;;;;;;;4.33;3.93;;;5.80;99.90;;;;;;5012118;28;20207;-67
2021/03/17 01:08:48;;;;;;;4.80;4.30;;;5.80;99.90;;;;;;5012150;28;20176;-66
2021/03/17 01:11:14;;;;;;;5.23;3.93;;;5.70;99.90;;;;;;5012175;28;20184;-68
2021/03/17 01:13:40;;;;;;;3.67;3.37;;;5.70;99.90;;;;;;5011722;28;20242;-68
2021/03/17 01:16:06;;;;;;;5.17;3.70;;;5.60;99.90;;;;;;5013039;28;20264;-67
2021/03/17 01:18:31;;;;;;;3.57;3.27;;;5.60;99.90;;;;;;5011818;28;20428;-68
2021/03/17 01:20:57;;;;;;;4.60;3.80;;;5.60;99.90;;;;;;5011718;28;20267;-66
2021/03/17 01:23:23;;;;;;;4.40;4.00;;;5.60;99.90;;;;;;5011606;28;20188;-67
2021/03/17 01:25:49;;;;;;;3.90;3.60;;;5.60;99.90;;;;;;5011364;28;20533;-67
2021/03/17 01:28:15;;;;;;;4.40;4.00;;;5.50;99.90;;;;;;5012049;28;20196;-68
2021/03/17 01:30:47;;;;;;;4.83;4.30;;;5.50;99.90;;;;;;5011486;28;20212;-67
2021/03/17 01:33:13;;;;;;;4.33;3.93;;;5.50;99.90;;;;;;5011767;28;20434;-67
2021/03/17 01:35:44;;;;;;;4.27;3.47;;;5.50;99.90;;;;;;5011738;28;20423;-67
2021/03/17 01:38:10;;;;;;;4.67;4.00;;;5.40;99.90;;;;;;5011586;28;20982;-67
2021/03/17 01:40:38;;;;;;;4.17;3.77;;;5.50;99.90;;;;;;5011522;28;20538;-68
2021/03/17 01:43:04;;;;;;;3.73;3.43;;;5.50;99.90;;;;;;5011488;28;20545;-68
2021/03/17 01:45:30;;;;;;;4.03;3.73;;;5.50;99.90;;;;;;5011430;28;20738;-68
2021/03/17 01:47:56;;;;;;;3.63;3.33;;;5.40;99.90;;;;;;5011359;28;20420;-67
2021/03/17 01:50:28;;;;;;;4.13;3.73;;;5.40;99.90;;;;;;5010949;28;20206;-67
2021/03/17 01:52:55;;;;;;;3.70;3.40;;;5.40;99.90;;;;;;5011509;28;20215;-68
2021/03/17 01:55:23;;;;;;;3.23;2.93;;;5.30;99.90;;;;;;5011218;28;20873;-67
2021/03/17 01:57:49;;;;;;;3.17;2.87;;;5.40;99.90;;;;;;5011696;28;20535;-67
2021/03/17 02:00:18;;;;;;;3.33;3.03;;;5.50;99.90;;;;;;5011135;28;20889;-67
2021/03/17 02:02:48;;;;;;;3.43;3.13;;;5.50;99.90;;;;;;4993918;28;20263;-68
2021/03/17 02:05:16;;;;;;;3.43;3.10;;;5.50;99.90;;;;;;5011226;28;20419;-68
2021/03/17 02:07:42;;;;;;;3.10;2.80;;;5.50;99.90;;;;;;4993555;28;20466;-68
2021/03/17 02:10:13;;;;;;;3.70;2.90;;;5.40;99.90;;;;;;5011175;28;20869;-68
2021/03/17 02:12:54;;;;;;;3.53;3.20;;;5.30;99.90;;;;;;5010499;28;20445;-67
2021/03/17 02:16:00;;;;;;;3.43;3.10;;;5.30;99.90;;;;;;5010371;28;20411;-67
2021/03/17 02:18:38;;;;;;;3.23;2.93;;;5.40;99.90;;;;;;5005008;28;20408;-67
2021/03/17 02:21:32;;;;;;;2.90;2.70;;;5.40;99.90;;;;;;5000255;28;20417;-67
2021/03/17 02:24:35;;;;;;;4.40;3.07;;;5.40;99.90;;;;;;5001743;28;20703;-68
2021/03/17 02:27:40;;;;;;;3.40;3.10;;;5.40;99.90;;;;;;4991919;28;20423;-68
2021/03/17 02:30:30;;;;;;;3.53;3.23;;;5.40;99.90;;;;;;4999537;28;20467;-67
2021/03/17 02:33:16;;;;;;;3.10;2.80;;;5.40;99.90;;;;;;5011227;28;20781;-67
2021/03/17 02:35:47;;;;;;;3.17;2.87;;;5.30;99.90;;;;;;5002355;28;20463;-67
2021/03/17 02:38:15;;;;;;;4.53;3.57;;;5.30;99.90;;;;;;5005123;28;20434;-67
2021/03/17 02:40:42;;;;;;;3.60;3.30;;;5.30;99.90;;;;;;5005511;28;20427;-67
2021/03/17 02:43:28;;;;;;;3.60;3.30;;;5.30;99.90;;;;;;5003892;28;20435;-67
2021/03/17 02:45:58;;;;;;;3.03;2.73;;;5.30;99.90;;;;;;4994990;28;20420;-68
2021/03/17 02:48:28;;;;;;;4.80;3.70;;;5.30;99.90;;;;;;4994516;28;20412;-67
2021/03/17 02:50:59;;;;;;;3.77;3.20;;;5.20;99.90;;;;;;5006658;28;20455;-67
2021/03/17 02:53:27;;;;;;;3.83;3.53;;;5.10;99.90;;;;;;5010790;28;20419;-68
2021/03/17 02:56:00;;;;;;;3.97;3.20;;;5.20;99.90;;;;;;5010950;28;20920;-67
2021/03/17 02:58:28;;;;;;;3.47;3.07;;;5.30;99.90;;;;;;4997266;28;20451;-68
2021/03/17 03:00:54;;;;;;;3.70;3.40;;;5.30;99.90;;;;;;4995866;28;20515;-68
2021/03/17 03:03:21;;;;;;;3.53;3.23;;;5.30;99.90;;;;;;5003039;28;20434;-69
2021/03/17 03:05:50;;;;;;;3.90;3.50;;;5.30;99.90;;;;;;5008232;28;20424;-67
2021/03/17 03:08:17;;;;;;;3.97;3.57;;;5.30;99.90;;;;;;5011000;28;20415;-67
2021/03/17 03:10:44;;;;;;;3.60;3.30;;;5.30;99.90;;;;;;5001061;28;20513;-67
2021/03/17 03:13:10;;;;;;;3.20;2.90;;;5.40;99.90;;;;;;4996133;28;20416;-67
2021/03/17 03:15:37;;;;;;;3.70;3.27;;;5.30;99.90;;;;;;5014086;28;20423;-68
2021/03/17 03:18:05;;;;;;;3.70;3.40;;;5.30;99.90;;;;;;4994499;28;20255;-67
2021/03/17 03:20:33;;;;;;;4.17;3.77;;;5.20;99.90;;;;;;5013890;28;20433;-68
2021/03/17 03:23:01;;;;;;;3.77;3.47;;;5.40;99.90;;;;;;5014091;28;20495;-67
2021/03/17 03:25:27;;;;;;;4.17;3.77;;;5.30;99.90;;;;;;5013854;28;20435;-68
2021/03/17 03:27:54;;;;;;;3.83;3.50;;;5.30;99.90;;;;;;5014033;28;20415;-68
2021/03/17 03:30:28;;;;;;;3.90;3.50;;;5.20;99.90;;;;;;5013762;28;20231;-68
2021/03/17 03:32:54;;;;;;;4.50;3.70;;;5.20;99.90;;;;;;5014023;28;20497;-67
2021/03/17 03:35:22;;;;;;;3.67;3.27;;;5.20;99.90;;;;;;5013747;28;20471;-68
2021/03/17 03:37:48;;;;;;;3.90;3.53;;;5.20;99.90;;;;;;5013447;28;20470;-67
2021/03/17 03:40:17;;;;;;;4.17;3.77;;;5.20;99.90;;;;;;5013572;28;20431;-66
2021/03/17 03:42:44;;;;;;;4.37;3.97;;;5.20;99.90;;;;;;5013439;28;20897;-68
2021/03/17 03:45:16;;;;;;;4.10;3.60;;;5.20;99.90;;;;;;5013536;28;20932;-67
2021/03/17 03:47:43;;;;;;;4.17;3.40;;;5.20;99.90;;;;;;5013310;28;20531;-68
2021/03/17 03:50:12;;;;;;;4.20;3.80;;;5.20;99.90;;;;;;5013269;28;20459;-68
2021/03/17 03:53:10;;;;;;;4.03;3.63;;;5.10;99.90;;;;;;5013443;28;20415;-67
2021/03/17 03:55:56;;;;;;;5.37;4.40;;;5.10;99.90;;;;;;4986268;28;20424;-67
2021/03/17 03:58:43;;;;;;;5.17;4.67;;;5.10;99.90;;;;;;4999557;28;20462;-69
2021/03/17 04:01:12;;;;;;;6.07;4.67;;;5.20;99.90;;;;;;5012944;28;20522;-68
2021/03/17 04:03:43;;;;;;;4.87;4.37;;;5.10;99.90;;;;;;5012568;28;20927;-68
2021/03/17 04:06:13;;;;;;;4.80;4.40;;;5.10;99.90;;;;;;5012914;28;20419;-68
2021/03/17 04:08:47;;;;;;;4.73;4.33;;;5.10;99.90;;;;;;5013280;28;20632;-67
2021/03/17 04:11:14;;;;;;;5.20;4.70;;;5.10;99.90;;;;;;5012711;28;20478;-67
2021/03/17 04:13:41;;;;;;;5.23;4.73;;;5.20;99.90;;;;;;5012778;28;20885;-67
2021/03/17 04:16:07;;;;;;;5.43;4.70;;;5.20;99.90;;;;;;5012828;28;20416;-66
2021/03/17 04:18:37;;;;;;;5.10;4.60;;;5.10;99.90;;;;;;5012930;28;20498;-67
2021/03/17 04:21:12;;;;;;;4.87;4.37;;;5.10;99.90;;;;;;4995239;28;20531;-68
2021/03/17 04:23:39;;;;;;;8.20;5.43;;;5.20;99.90;;;;;;5013005;28;20970;-67
2021/03/17 04:26:06;;;;;;;5.67;5.07;;;5.20;99.90;;;;;;5012658;28;20415;-69
2021/03/17 04:28:34;;;;;;;5.73;5.20;;;5.30;99.90;;;;;;5012696;28;20416;-68
2021/03/17 04:31:02;;;;;;;6.57;5.57;;;5.30;99.90;;;;;;5012399;28;20462;-66
2021/03/17 04:33:30;;;;;;;6.13;5.43;;;5.30;99.90;;;;;;5012757;28;20477;-67
2021/03/17 04:35:57;;;;;;;6.90;5.93;;;5.30;99.90;;;;;;5012812;28;20458;-68
2021/03/17 04:38:26;;;;;;;5.73;5.13;;;5.40;99.90;;;;;;5012393;28;20431;-68
2021/03/17 04:40:53;;;;;;;6.93;5.73;;;5.30;99.90;;;;;;5012479;28;20426;-67
2021/03/17 04:43:18;;;;;;;6.27;5.67;;;5.30;99.90;;;;;;5012394;28;20418;-66
2021/03/17 04:45:46;;;;;;;6.03;5.43;;;5.30;99.90;;;;;;5012474;28;20473;-67
2021/03/17 04:48:12;;;;;;;6.50;5.90;;;5.20;99.90;;;;;;5011867;28;20177;-67
2021/03/17 04:50:40;;;;;;;6.73;6.03;;;5.30;99.90;;;;;;5011701;28;20753;-67
2021/03/17 04:53:09;;;;;;;6.97;6.27;;;5.30;99.90;;;;;;5012034;28;20190;-68
2021/03/17 04:55:35;;;;;;;6.17;5.57;;;5.30;99.90;;;;;;5012231;28;20740;-67
2021/03/17 04:58:01;;;;;;;6.10;5.50;;;5.40;99.90;;;;;;5012249;28;20421;-68
2021/03/17 05:00:28;;;;;;;6.10;5.50;;;5.30;99.90;;;;;;5012095;28;20589;-68
2021/03/17 05:03:05;;;;;;;6.13;5.53;;;5.30;99.90;;;;;;5011995;28;20423;-67
2021/03/17 05:05:32;;;;;;;6.40;5.80;;;5.30;99.90;;;;;;5011890;28;20794;-66
2021/03/17 05:07:59;;;;;;;7.40;6.67;;;5.30;99.90;;;;;;5011870;28;20890;-67
2021/03/17 05:10:27;;;;;;;8.13;6.10;;;5.30;99.90;;;;;;5011953;28;20459;-67
2021/03/17 05:12:53;;;;;;;6.87;5.97;;;5.30;99.90;;;;;;5011813;28;20765;-67
2021/03/17 05:15:21;;;;;;;7.50;6.63;;;5.30;99.90;;;;;;5012045;28;20635;-67
2021/03/17 05:17:49;;;;;;;9.17;6.10;;;5.30;99.90;;;;;;5009718;28;20464;-67
2021/03/17 05:20:19;;;;;;;7.27;6.53;;;5.30;99.90;;;;;;5011748;28;20522;-68
2021/03/17 05:22:46;;;;;;;7.60;6.77;;;5.30;99.90;;;;;;5011504;28;20423;-68
2021/03/17 05:25:13;;;;;;;7.67;6.73;;;5.30;99.90;;;;;;5007066;28;20881;-68
2021/03/17 05:27:40;;;;;;;7.83;6.83;;;5.30;99.90;;;;;;5011784;28;20803;-67
2021/03/17 05:30:09;;;;;;;9.20;7.03;;;5.30;99.90;;;;;;5011435;28;20470;-66
2021/03/17 05:32:36;;;;;;;11.03;8.67;;;5.40;99.90;;;;;;5008781;28;20506;-68
2021/03/17 05:35:05;;;;;;;10.43;8.50;;;5.30;99.90;;;;;;5011608;28;20426;-68
2021/03/17 05:37:31;;;;;;;11.97;9.40;;;5.40;99.90;;;;;;5011522;28;20766;-67
2021/03/17 05:39:57;;;;;;;10.33;9.20;;;5.40;99.90;;;;;;5011456;28;20424;-70
2021/03/17 05:42:24;;;;;;;12.27;9.73;;;5.40;99.90;;;;;;5011115;28;20195;-70
2021/03/17 05:44:54;;;;;;;16.77;12.70;;;5.50;99.90;;;;;;5011412;28;20427;-71
2021/03/17 05:47:21;;;;;;;13.80;9.97;;;5.50;99.90;;;;;;5010997;28;20450;-68
2021/03/17 05:49:48;;;;;;;12.57;9.97;;;5.50;99.90;;;;;;5011011;28;20478;-69
2021/03/17 05:52:16;;;;;;;12.13;10.10;;;5.60;99.90;;;;;;4991507;28;20419;-71
2021/03/17 05:54:43;;;;;;;11.53;8.90;;;5.60;99.90;;;;;;5009919;28;20511;-69
2021/03/17 05:57:11;;;;;;;12.43;9.57;;;5.60;99.90;;;;;;5011242;28;20462;-69
2021/03/17 05:59:43;;;;;;;11.50;8.97;;;5.60;99.90;;;;;;5011256;28;20420;-68
2021/03/17 06:02:09;;;;;;;11.77;9.23;;;5.60;99.90;;;;;;5011299;28;20474;-69
2021/03/17 06:04:38;;;;;;;12.83;10.30;;;5.50;99.90;;;;;;5011182;28;20933;-68
2021/03/17 06:07:14;;;;;;;13.23;8.97;;;5.60;99.90;;;;;;5010980;28;20218;-68
2021/03/17 06:09:43;;;;;;;12.30;9.43;;;5.60;99.90;;;;;;5011166;28;20482;-68
2021/03/17 06:12:10;;;;;;;11.30;9.37;;;5.60;99.90;;;;;;5011173;28;20411;-68
2021/03/17 06:14:36;;;;;;;11.50;9.63;;;5.70;99.90;;;;;;5010938;28;20411;-68
2021/03/17 06:17:12;;;;;;;12.77;9.27;;;5.60;99.90;;;;;;5006655;28;20768;-68
2021/03/17 06:19:41;;;;;;;14.83;10.63;;;5.70;99.90;;;;;;5008872;28;20415;-68
2021/03/17 06:22:07;;;;;;;17.30;11.33;;;5.60;99.90;;;;;;5020721;28;20415;-70
2021/03/17 06:24:35;;;;;;;16.30;10.87;;;5.60;99.90;;;;;;5030475;28;20897;-67
2021/03/17 06:27:03;;;;;;;15.73;10.87;;;5.70;99.90;;;;;;5030741;28;20453;-67
2021/03/17 06:29:28;;;;;;;15.47;10.67;;;5.60;99.90;;;;;;5010944;28;20948;-67
2021/03/17 06:31:54;;;;;;;15.07;10.77;;;5.60;99.90;;;;;;5010953;28;20447;-69
2021/03/17 06:34:19;;;;;;;13.57;10.00;;;5.60;99.90;;;;;;5020159;28;20259;-67
2021/03/17 06:36:52;;;;;;;13.63;9.73;;;5.60;99.90;;;;;;5034071;28;20575;-68
2021/03/17 06:39:19;;;;;;;16.47;10.90;;;5.50;99.90;;;;;;5034403;28;20223;-68
2021/03/17 06:41:51;;;;;;;16.00;10.97;;;5.50;99.90;;;;;;5034192;28;20501;-67
2021/03/17 06:44:21;;;;;;;13.17;9.73;;;5.40;99.90;;;;;;5034326;28;20491;-67
2021/03/17 06:47:16;;;;;;;14.33;10.47;;;5.30;99.90;;;;;;5017744;28;20419;-67
2021/03/17 06:49:43;;;;;;;18.70;9.57;;;5.30;99.90;;;;;;5014293;28;20755;-68
2021/03/17 06:52:41;;;;;;;15.30;11.00;;;5.30;99.90;;;;;;5014247;28;20923;-67
2021/03/17 06:55:18;;;;;;;12.40;9.80;;;5.40;99.90;;;;;;5033394;28;20421;-68
2021/03/17 06:57:56;;;;;;;12.03;9.30;;;5.50;99.90;;;;;;4996744;28;20425;-69
2021/03/17 07:00:25;;;;;;;11.40;9.37;;;5.60;99.90;;;;;;4996565;28;20427;-69
2021/03/17 07:03:00;;;;;;;11.40;8.30;;;5.70;99.90;;;;;;5014363;28;20490;-68
2021/03/17 07:05:38;;;;;;;12.17;8.10;;;5.70;99.90;;;;;;5014240;28;20454;-67
2021/03/17 07:08:26;;;;;;;8.30;6.63;;;5.70;99.90;;;;;;5033111;28;20449;-68
2021/03/17 07:10:56;;;;;;;10.17;7.57;;;5.70;99.90;;;;;;5013912;28;20546;-69
2021/03/17 07:13:25;;;;;;;9.57;6.40;;;5.70;99.90;;;;;;5013753;28;20422;-67
2021/03/17 07:15:58;;;;;;;9.07;6.47;;;5.60;99.90;;;;;;5013945;28;20428;-67
2021/03/17 07:18:30;;;;;;;10.77;7.50;;;5.50;99.90;;;;;;5032853;28;22570;-68
2021/03/17 07:21:04;;;;;;;8.53;6.70;;;5.60;99.90;;;;;;5015405;28;20454;-69
2021/03/17 07:23:36;;;;;;;13.10;7.03;;;5.60;99.90;;;;;;5016637;28;20447;-68
2021/03/17 07:26:09;;;;;;;11.50;7.17;;;5.60;99.90;;;;;;5032885;28;20418;-69
2021/03/17 07:28:47;;;;;;;13.20;7.10;;;5.70;99.90;;;;;;5033159;28;20429;-69
2021/03/17 07:31:19;;;;;;;7.70;6.33;;;5.80;99.90;;;;;;5033271;28;20449;-68
2021/03/17 07:33:45;;;;;;;9.27;6.17;;;5.90;99.90;;;;;;5032867;28;20761;-69
2021/03/17 07:36:12;;;;;;;20.53;7.83;;;5.90;99.90;;;;;;5018904;28;20928;-69
2021/03/17 07:38:38;;;;;;;20.23;7.90;;;5.90;99.90;;;;;;5013568;28;20470;-68
2021/03/17 07:41:05;;;;;;;12.37;7.00;;;6.00;99.90;;;;;;4995522;28;20443;-68
2021/03/17 07:43:31;;;;;;;8.50;6.30;;;6.10;99.90;;;;;;5013552;28;20177;-69
2021/03/17 07:45:59;;;;;;;10.33;6.13;;;6.10;99.90;;;;;;5012322;28;20456;-68
2021/03/17 07:48:27;;;;;;;8.10;6.53;;;6.10;99.90;;;;;;5012472;28;20416;-70
2021/03/17 07:50:53;;;;;;;10.03;6.30;;;6.10;99.90;;;;;;5032395;28;20460;-69
2021/03/17 07:53:26;;;;;;;6.33;4.97;;;6.20;99.90;;;;;;5032963;28;20521;-69
2021/03/17 07:56:02;;;;;;;11.53;4.70;;;6.30;99.90;;;;;;5013600;28;20519;-67
2021/03/17 07:58:28;;;;;;;4.90;4.40;;;6.20;99.90;;;;;;5032375;28;20411;-69
2021/03/17 08:00:54;;;;;;;6.43;4.50;;;6.30;99.90;;;;;;5032296;28;20922;-68
2021/03/17 08:03:22;;;;;;;5.27;4.50;;;6.30;99.90;;;;;;5029261;28;20422;-68
2021/03/17 08:05:48;;;;;;;5.03;3.90;;;6.30;99.90;;;;;;5032589;28;20429;-68
2021/03/17 08:08:15;;;;;;;7.50;4.80;;;6.20;99.90;;;;;;5032503;28;20414;-69
2021/03/17 08:10:45;;;;;;;8.00;4.33;;;6.20;99.90;;;;;;5026829;28;20200;-68
2021/03/17 08:13:14;;;;;;;12.23;5.47;;;6.20;99.90;;;;;;5012777;28;20407;-69
2021/03/17 08:15:43;;;;;;;7.47;4.90;;;6.30;99.90;;;;;;5012864;28;20458;-70
2021/03/17 08:18:32;;;;;;;6.20;4.73;;;6.40;99.90;;;;;;5013039;28;20471;-68
2021/03/17 08:21:01;;;;;;;6.17;4.77;;;6.50;99.90;;;;;;5012531;28;20427;-68
2021/03/17 08:23:40;;;;;;;8.23;4.87;;;6.60;99.90;;;;;;5012400;28;20750;-70
2021/03/17 08:26:10;;;;;;;7.50;4.50;;;6.60;99.90;;;;;;5012461;28;20453;-67
2021/03/17 08:28:53;;;;;;;4.97;4.40;;;6.70;99.90;;;;;;5012393;28;20846;-69
2021/03/17 08:31:36;;;;;;;4.60;3.77;;;6.70;99.90;;;;;;5012212;28;20483;-69
2021/03/17 08:34:21;;;;;;;4.40;3.60;;;6.90;99.90;;;;;;5012222;28;20478;-68
2021/03/17 08:36:55;;;;;;;6.90;3.83;;;7.00;99.90;;;;;;5011367;28;20412;-68
2021/03/17 08:39:29;;;;;;;6.53;4.07;;;7.00;99.90;;;;;;5012466;28;20867;-69
2021/03/17 08:42:26;;;;;;;5.57;3.77;;;7.10;99.90;;;;;;5011858;28;20434;-67
2021/03/17 08:44:52;;;;;;;7.50;4.23;;;7.10;99.90;;;;;;5012172;28;20423;-67
2021/03/17 08:47:28;;;;;;;6.40;4.50;;;7.10;99.90;;;;;;5012060;28;20984;-68
2021/03/17 08:49:57;;;;;;;7.67;4.27;;;7.10;99.90;;;;;;5011884;28;20231;-67
2021/03/17 08:52:40;;;;;;;5.77;3.77;;;7.20;99.90;;;;;;5012180;28;20425;-70
2021/03/17 08:55:09;;;;;;;7.70;4.20;;;7.30;99.90;;;;;;5011923;28;20431;-68
2021/03/17 08:57:55;;;;;;;5.07;3.43;;;7.30;99.90;;;;;;5011926;28;20416;-69
2021/03/17 09:00:48;;;;;;;6.77;4.30;;;7.40;99.90;;;;;;5010806;28;20434;-68
2021/03/17 09:03:32;;;;;;;4.17;3.43;;;7.40;99.90;;;;;;5011458;28;20423;-67
2021/03/17 09:06:19;;;;;;;6.37;3.93;;;7.40;99.90;;;;;;5011159;28;20431;-68
2021/03/17 09:08:48;;;;;;;4.67;3.70;;;7.40;99.90;;;;;;5011875;28;20746;-67
2021/03/17 09:11:31;;;;;;;5.00;3.40;;;7.30;99.90;;;;;;5011574;28;20509;-68
2021/03/17 09:14:04;;;;;;;4.73;3.57;;;7.20;99.90;;;;;;5010544;28;20411;-68
2021/03/17 09:16:34;;;;;;;6.30;3.90;;;7.10;99.90;;;;;;5011533;28;20765;-68
2021/03/17 09:19:11;;;;;;;6.67;4.20;;;7.00;99.90;;;;;;5030487;28;20446;-69
2021/03/17 09:21:42;;;;;;;5.10;3.43;;;7.00;99.90;;;;;;5031226;28;20441;-69
2021/03/17 09:24:34;;;;;;;6.70;4.10;;;6.90;99.90;;;;;;5031451;28;20441;-68
2021/03/17 09:27:08;;;;;;;4.03;3.63;;;6.90;99.90;;;;;;5016564;28;20913;-68
2021/03/17 09:29:36;;;;;;;6.57;3.43;;;6.80;99.90;;;;;;5011371;28;20561;-67
2021/03/17 09:32:03;;;;;;;4.70;3.33;;;6.80;99.90;;;;;;5029920;28;20430;-68
2021/03/17 09:34:34;;;;;;;6.37;3.60;;;6.70;99.90;;;;;;5031146;28;20432;-68
2021/03/17 09:37:05;;;;;;;5.00;3.80;;;6.80;99.90;;;;;;5022180;28;20423;-67
2021/03/17 09:39:31;;;;;;;5.90;4.30;;;6.70;99.90;;;;;;5019292;28;20419;-68
2021/03/17 09:41:57;;;;;;;6.03;4.60;;;6.70;99.90;;;;;;5029629;28;20449;-68
2021/03/17 09:44:23;;;;;;;8.37;4.37;;;6.70;99.90;;;;;;5011415;28;20416;-69
2021/03/17 09:46:55;;;;;;;7.00;3.97;;;6.60;99.90;;;;;;5011562;28;20263;-67
2021/03/17 09:49:24;;;;;;;6.30;3.70;;;6.80;99.90;;;;;;5011364;28;20483;-67
2021/03/17 09:51:52;;;;;;;5.30;3.77;;;6.80;99.90;;;;;;5011343;28;20745;-68
2021/03/17 09:54:22;;;;;;;6.77;4.10;;;6.90;99.90;;;;;;5030789;28;20468;-67
2021/03/17 09:56:56;;;;;;;6.40;3.90;;;7.00;99.90;;;;;;5022727;28;20437;-68
2021/03/17 09:59:41;;;;;;;6.93;3.97;;;7.10;99.90;;;;;;5030517;28;20415;-69
2021/03/17 10:02:14;;;;;;;5.27;4.10;;;7.30;99.90;;;;;;5011289;28;20482;-68
2021/03/17 10:04:48;;;;;;;4.43;3.90;;;7.40;99.90;;;;;;5024544;28;20468;-67
2021/03/17 10:07:21;;;;;;;5.03;4.10;;;7.60;99.90;;;;;;5006191;28;20424;-67
2021/03/17 10:09:47;;;;;;;4.70;3.57;;;7.70;99.90;;;;;;5026577;28;20455;-68
2021/03/17 10:12:18;;;;;;;6.57;4.37;;;7.70;99.90;;;;;;5034784;28;20410;-68
2021/03/17 10:14:45;;;;;;;4.57;3.23;;;8.00;99.90;;;;;;5027571;28;20802;-68
2021/03/17 10:17:13;;;;;;;5.47;3.80;;;8.20;99.90;;;;;;5018034;28;20406;-69
2021/03/17 10:19:40;;;;;;;7.07;3.63;;;8.20;99.90;;;;;;5034777;28;20410;-68
2021/03/17 10:22:08;;;;;;;4.27;3.13;;;8.10;99.90;;;;;;5023657;28;20414;-68
2021/03/17 10:24:43;;;;;;;5.00;3.47;;;8.00;99.90;;;;;;5022173;28;20422;-69
2021/03/17 10:27:20;;;;;;;7.37;4.13;;;7.80;99.90;;;;;;5015017;28;20472;-68
2021/03/17 10:29:49;;;;;;;6.20;3.87;;;7.70;99.90;;;;;;5017513;28;20469;-69
2021/03/17 10:32:21;;;;;;;6.93;4.13;;;7.70;99.90;;;;;;5015064;28;20419;-68
2021/03/17 10:34:47;;;;;;;5.90;4.00;;;7.50;99.90;;;;;;5025499;28;20414;-68
2021/03/17 10:37:14;;;;;;;6.33;4.30;;;7.50;99.90;;;;;;5034249;28;20464;-69
2021/03/17 10:39:41;;;;;;;7.10;4.60;;;7.40;99.90;;;;;;5033526;28;20175;-68
2021/03/17 10:42:20;;;;;;;6.43;5.23;;;7.30;99.90;;;;;;5021246;28;20419;-68
2021/03/17 10:44:59;;;;;;;9.13;6.07;;;7.20;99.90;;;;;;5014793;28;20443;-68
2021/03/17 10:47:25;;;;;;;6.67;5.80;;;7.00;99.90;;;;;;5022138;28;20406;-68
2021/03/17 10:49:50;;;;;;;6.83;5.53;;;7.00;99.90;;;;;;5019173;28;20455;-68
2021/03/17 10:52:16;;;;;;;9.60;6.57;;;6.90;99.90;;;;;;5014348;28;20176;-69
2021/03/17 10:54:45;;;;;;;8.57;6.13;;;6.90;99.90;;;;;;5031935;28;20160;-69
2021/03/17 10:57:20;;;;;;;7.00;6.07;;;7.00;99.90;;;;;;5000754;28;20179;-67
2021/03/17 10:59:45;;;;;;;11.50;6.67;;;7.00;99.90;;;;;;5027665;28;20424;-68
2021/03/17 11:02:24;;;;;;;7.87;6.60;;;7.10;99.90;;;;;;5031562;28;20505;-70
2021/03/17 11:05:12;;;;;;;8.40;6.83;;;7.10;99.90;;;;;;5025955;28;20336;-69
2021/03/17 11:07:58;;;;;;;10.17;7.33;;;7.20;99.90;;;;;;5015392;28;20808;-68
2021/03/17 11:10:49;;;;;;;10.90;7.47;;;7.20;99.90;;;;;;5029659;28;20503;-67
2021/03/17 11:13:18;;;;;;;11.03;7.43;;;7.30;99.90;;;;;;5033907;28;20460;-67
2021/03/17 11:16:13;;;;;;;10.33;7.03;;;7.60;99.90;;;;;;5022825;28;20415;-68
2021/03/17 11:18:51;;;;;;;8.23;6.33;;;7.90;99.90;;;;;;5001223;28;20498;-69
2021/03/17 11:21:33;;;;;;;8.67;6.77;;;7.90;99.90;;;;;;5001337;28;20458;-69
2021/03/17 11:24:15;;;;;;;8.00;5.37;;;7.90;99.90;;;;;;5013839;28;20423;-67
2021/03/17 11:26:41;;;;;;;7.37;5.20;;;7.90;99.90;;;;;;5013797;28;20917;-68
2021/03/17 11:29:29;;;;;;;4.60;4.10;;;7.80;99.90;;;;;;5012387;28;20415;-67
2021/03/17 11:32:04;;;;;;;5.00;4.50;;;7.80;99.90;;;;;;4994130;28;20420;-67
2021/03/17 11:34:30;;;;;;;5.77;5.00;;;7.90;99.90;;;;;;5003606;28;20415;-68
2021/03/17 11:36:55;;;;;;;11.67;4.90;;;8.30;99.90;;;;;;5012379;28;20477;-69
2021/03/17 11:39:21;;;;;;;8.47;5.67;;;8.60;99.90;;;;;;5013844;28;20174;-69
2021/03/17 11:41:49;;;;;;;8.77;5.23;;;8.80;99.90;;;;;;4991233;28;20639;-68
2021/03/17 11:44:17;;;;;;;8.37;5.60;;;9.10;99.90;;;;;;4994200;28;20184;-68
2021/03/17 11:46:43;;;;;;;5.83;4.90;;;9.50;99.90;;;;;;4997924;28;20428;-68
2021/03/17 11:49:09;;;;;;;5.83;5.03;;;10.00;99.90;;;;;;5003329;28;20520;-68
2021/03/17 11:51:35;;;;;;;6.90;5.33;;;10.40;99.90;;;;;;4997927;28;20809;-68
2021/03/17 11:54:00;;;;;;;6.37;4.57;;;10.80;99.90;;;;;;4993731;28;20206;-69
2021/03/17 11:56:26;;;;;;;4.30;3.70;;;11.00;99.90;;;;;;5005493;28;20264;-67
2021/03/17 11:58:51;;;;;;;5.33;4.83;;;11.10;98.90;;;;;;4997925;28;20553;-68
2021/03/17 12:01:17;;;;;;;4.00;3.60;;;11.00;99.90;;;;;;4993573;28;20181;-67
2021/03/17 12:03:43;;;;;;;4.30;3.90;;;10.90;99.90;;;;;;4993705;28;20256;-68
2021/03/17 12:06:09;;;;;;;4.83;3.70;;;11.10;99.90;;;;;;4997574;28;20263;-68
2021/03/17 12:08:35;;;;;;;5.93;4.13;;;11.00;98.30;;;;;;5007989;28;20192;-69
2021/03/17 12:11:01;;;;;;;5.20;4.60;;;11.00;99.90;;;;;;4987498;28;20246;-68
2021/03/17 12:13:27;;;;;;;5.50;4.73;;;10.70;99.90;;;;;;4987768;28;20624;-69
2021/03/17 12:15:52;;;;;;;5.83;5.23;;;10.50;99.90;;;;;;5003168;28;20702;-68
2021/03/17 12:18:18;;;;;;;6.03;5.43;;;10.30;99.90;;;;;;5005217;28;20270;-68
2021/03/17 12:20:44;;;;;;;7.70;5.67;;;10.30;99.90;;;;;;5012865;28;20181;-69
2021/03/17 12:23:10;;;;;;;8.03;5.80;;;10.30;99.90;;;;;;4995948;28;20250;-69
2021/03/17 12:25:36;;;;;;;6.57;5.27;;;10.20;99.90;;;;;;5018281;28;20179;-67
2021/03/17 12:28:02;;;;;;;5.60;5.00;;;10.20;99.90;;;;;;5031813;28;20525;-69
2021/03/17 12:30:28;;;;;;;7.30;5.33;;;10.20;99.90;;;;;;5023317;28;20209;-68
2021/03/17 12:32:54;;;;;;;5.20;4.70;;;10.10;99.90;;;;;;5012052;28;20264;-69
2021/03/17 12:35:22;;;;;;;6.63;4.30;;;9.90;99.90;;;;;;5020423;28;20200;-68
2021/03/17 12:37:49;;;;;;;4.23;3.77;;;9.90;99.90;;;;;;5022028;28;20246;-69
2021/03/17 12:40:19;;;;;;;5.13;3.97;;;10.00;99.90;;;;;;5012681;28;20419;-67
2021/03/17 12:42:45;;;;;;;3.70;3.40;;;10.60;99.90;;;;;;5019156;28;20434;-68
2021/03/17 12:45:13;;;;;;;4.27;2.73;;;11.10;99.90;;;;;;5011938;28;20603;-67
2021/03/17 12:47:41;;;;;;;5.80;3.83;;;11.10;97.20;;;;;;5031932;28;20628;-67
2021/03/17 12:50:11;;;;;;;6.40;4.20;;;10.60;99.90;;;;;;5027355;28;20240;-69
2021/03/17 12:52:37;;;;;;;5.73;5.03;;;10.20;99.90;;;;;;5015911;28;20224;-68
2021/03/17 12:55:05;;;;;;;6.00;4.20;;;9.90;99.90;;;;;;5029001;28;20450;-68
2021/03/17 12:57:30;;;;;;;5.60;3.93;;;9.70;99.90;;;;;;5030540;28;20278;-68
2021/03/17 12:59:58;;;;;;;3.93;3.20;;;9.60;99.90;;;;;;5023423;28;20557;-68
2021/03/17 13:02:24;;;;;;;5.27;3.30;;;9.60;99.90;;;;;;5026407;28;20176;-67
2021/03/17 13:04:50;;;;;;;4.20;2.43;;;9.60;99.90;;;;;;5017694;28;20451;-67
2021/03/17 13:07:17;;;;;;;3.13;1.73;;;9.90;99.90;;;;;;5029902;28;20520;-67
2021/03/17 13:09:43;;;;;;;1.77;1.20;;;10.10;99.90;;;;;;5022424;28;20670;-69